sensor_id;sensor_type;location;lat;lon;timestamp;P1;durP1;ratioP1;P2;durP2;ratioP2
77589;SDS011;66746;51.328;12.332;2023-03-01T00:01:15;22.15;;;12.73;;
77589;SDS011;66746;51.328;12.332;2023-03-01T00:03:43;16.20;;;11.27;;
77589;SDS011;66746;51.328;12.332;2023-03-01T00:06:10;18.58;;;12.77;;
77589;SDS011;66746;51.328;12.332;2023-03-01T00:08:37;18.98;;;13.35;;
77589;SDS011;66746;51.328;12.332;2023-03-01T00:11:06;17.50;;;12.32;;
77589;SDS011;66746;51.328;12.332;2023-03-01T00:13:34;17.58;;;11.68;;
77589;SDS011;66746;51.328;12.332;2023-03-01T00:16:02;20.10;;;12.45;;
77589;SDS011;66746;51.328;12.332;2023-03-01T00:18:29;18.45;;;11.05;;
77589;SDS011;66746;51.328;12.332;2023-03-01T00:20:56;20.48;;;11.95;;
77589;SDS011;66746;51.328;12.332;2023-03-01T00:23:23;23.20;;;12.20;;
77589;SDS011;66746;51.328;12.332;2023-03-01T00:25:50;20.02;;;12.10;;
77589;SDS011;66746;51.328;12.332;2023-03-01T00:28:19;19.70;;;12.02;;
77589;SDS011;66746;51.328;12.332;2023-03-01T00:30:46;20.17;;;10.98;;
77589;SDS011;66746;51.328;12.332;2023-03-01T00:33:13;20.77;;;11.82;;
77589;SDS011;66746;51.328;12.332;2023-03-01T00:35:39;18.42;;;12.50;;
77589;SDS011;66746;51.328;12.332;2023-03-01T00:38:06;20.17;;;12.70;;
77589;SDS011;66746;51.328;12.332;2023-03-01T00:40:33;19.80;;;11.60;;
77589;SDS011;66746;51.328;12.332;2023-03-01T00:43:01;22.02;;;12.48;;
77589;SDS011;66746;51.328;12.332;2023-03-01T00:45:29;19.05;;;11.32;;
77589;SDS011;66746;51.328;12.332;2023-03-01T00:47:57;18.80;;;10.63;;
77589;SDS011;66746;51.328;12.332;2023-03-01T00:50:23;19.90;;;10.32;;
77589;SDS011;66746;51.328;12.332;2023-03-01T00:52:52;18.77;;;11.38;;
77589;SDS011;66746;51.328;12.332;2023-03-01T00:55:18;19.13;;;11.20;;
77589;SDS011;66746;51.328;12.332;2023-03-01T00:57:45;19.77;;;11.90;;
77589;SDS011;66746;51.328;12.332;2023-03-01T01:00:12;16.85;;;11.75;;
77589;SDS011;66746;51.328;12.332;2023-03-01T01:02:40;19.77;;;11.30;;
77589;SDS011;66746;51.328;12.332;2023-03-01T01:05:07;19.90;;;12.20;;
77589;SDS011;66746;51.328;12.332;2023-03-01T01:07:34;18.70;;;11.00;;
77589;SDS011;66746;51.328;12.332;2023-03-01T01:10:00;17.17;;;10.98;;
77589;SDS011;66746;51.328;12.332;2023-03-01T01:12:27;17.45;;;11.38;;
77589;SDS011;66746;51.328;12.332;2023-03-01T01:14:53;18.10;;;10.45;;
77589;SDS011;66746;51.328;12.332;2023-03-01T01:17:20;20.42;;;10.38;;
77589;SDS011;66746;51.328;12.332;2023-03-01T01:19:48;21.20;;;11.15;;
77589;SDS011;66746;51.328;12.332;2023-03-01T01:22:14;19.15;;;11.02;;
77589;SDS011;66746;51.328;12.332;2023-03-01T01:24:42;19.60;;;12.18;;
77589;SDS011;66746;51.328;12.332;2023-03-01T01:27:08;15.07;;;9.80;;
77589;SDS011;66746;51.328;12.332;2023-03-01T01:29:35;16.92;;;10.35;;
77589;SDS011;66746;51.328;12.332;2023-03-01T01:32:01;15.60;;;10.88;;
77589;SDS011;66746;51.328;12.332;2023-03-01T01:34:28;15.30;;;10.52;;
77589;SDS011;66746;51.328;12.332;2023-03-01T01:36:55;19.40;;;11.45;;
77589;SDS011;66746;51.328;12.332;2023-03-01T01:39:22;20.02;;;11.30;;
77589;SDS011;66746;51.328;12.332;2023-03-01T01:41:49;17.33;;;11.18;;
77589;SDS011;66746;51.328;12.332;2023-03-01T01:44:16;16.15;;;10.90;;
77589;SDS011;66746;51.328;12.332;2023-03-01T01:46:45;17.48;;;10.80;;
77589;SDS011;66746;51.328;12.332;2023-03-01T01:49:17;17.58;;;10.43;;
77589;SDS011;66746;51.328;12.332;2023-03-01T01:51:51;18.83;;;12.15;;
77589;SDS011;66746;51.328;12.332;2023-03-01T01:54:27;17.00;;;10.93;;
77589;SDS011;66746;51.328;12.332;2023-03-01T01:56:57;15.75;;;9.90;;
77589;SDS011;66746;51.328;12.332;2023-03-01T01:59:29;18.90;;;10.57;;
77589;SDS011;66746;51.328;12.332;2023-03-01T02:01:57;17.90;;;10.23;;
77589;SDS011;66746;51.328;12.332;2023-03-01T02:04:27;17.95;;;11.20;;
77589;SDS011;66746;51.328;12.332;2023-03-01T02:06:58;18.85;;;10.25;;
77589;SDS011;66746;51.328;12.332;2023-03-01T02:09:28;18.17;;;10.18;;
77589;SDS011;66746;51.328;12.332;2023-03-01T02:11:58;16.05;;;10.02;;
77589;SDS011;66746;51.328;12.332;2023-03-01T02:14:25;17.23;;;10.65;;
77589;SDS011;66746;51.328;12.332;2023-03-01T02:16:51;16.45;;;10.07;;
77589;SDS011;66746;51.328;12.332;2023-03-01T02:19:22;16.58;;;9.85;;
77589;SDS011;66746;51.328;12.332;2023-03-01T02:22:00;18.02;;;9.88;;
77589;SDS011;66746;51.328;12.332;2023-03-01T02:24:35;13.85;;;10.15;;
77589;SDS011;66746;51.328;12.332;2023-03-01T02:27:08;17.10;;;10.73;;
77589;SDS011;66746;51.328;12.332;2023-03-01T02:29:37;15.90;;;8.98;;
77589;SDS011;66746;51.328;12.332;2023-03-01T02:32:03;16.05;;;10.23;;
77589;SDS011;66746;51.328;12.332;2023-03-01T02:34:31;16.45;;;10.55;;
77589;SDS011;66746;51.328;12.332;2023-03-01T02:37:00;15.48;;;10.10;;
77589;SDS011;66746;51.328;12.332;2023-03-01T02:39:28;20.13;;;10.73;;
77589;SDS011;66746;51.328;12.332;2023-03-01T02:41:59;15.55;;;9.45;;
77589;SDS011;66746;51.328;12.332;2023-03-01T02:44:28;14.27;;;9.68;;
77589;SDS011;66746;51.328;12.332;2023-03-01T02:46:56;18.02;;;10.43;;
77589;SDS011;66746;51.328;12.332;2023-03-01T02:49:28;15.85;;;10.00;;
77589;SDS011;66746;51.328;12.332;2023-03-01T02:52:07;18.38;;;10.82;;
77589;SDS011;66746;51.328;12.332;2023-03-01T02:54:56;18.08;;;10.05;;
77589;SDS011;66746;51.328;12.332;2023-03-01T02:57:27;14.13;;;10.02;;
77589;SDS011;66746;51.328;12.332;2023-03-01T02:59:56;15.50;;;10.07;;
77589;SDS011;66746;51.328;12.332;2023-03-01T03:02:28;15.18;;;9.75;;
77589;SDS011;66746;51.328;12.332;2023-03-01T03:04:56;17.88;;;10.77;;
77589;SDS011;66746;51.328;12.332;2023-03-01T03:07:22;16.88;;;10.05;;
77589;SDS011;66746;51.328;12.332;2023-03-01T03:09:49;15.45;;;9.50;;
77589;SDS011;66746;51.328;12.332;2023-03-01T03:12:15;15.35;;;9.93;;
77589;SDS011;66746;51.328;12.332;2023-03-01T03:14:42;19.77;;;11.15;;
77589;SDS011;66746;51.328;12.332;2023-03-01T03:17:08;17.35;;;11.50;;
77589;SDS011;66746;51.328;12.332;2023-03-01T03:19:36;17.13;;;10.30;;
77589;SDS011;66746;51.328;12.332;2023-03-01T03:22:03;14.85;;;9.10;;
77589;SDS011;66746;51.328;12.332;2023-03-01T03:24:29;17.05;;;9.27;;
77589;SDS011;66746;51.328;12.332;2023-03-01T03:26:56;19.75;;;9.98;;
77589;SDS011;66746;51.328;12.332;2023-03-01T03:29:22;15.68;;;9.68;;
77589;SDS011;66746;51.328;12.332;2023-03-01T03:31:48;16.60;;;10.98;;
77589;SDS011;66746;51.328;12.332;2023-03-01T03:34:15;17.55;;;9.15;;
77589;SDS011;66746;51.328;12.332;2023-03-01T03:36:43;15.90;;;11.40;;
77589;SDS011;66746;51.328;12.332;2023-03-01T03:39:09;17.73;;;10.27;;
77589;SDS011;66746;51.328;12.332;2023-03-01T03:41:36;16.50;;;9.77;;
77589;SDS011;66746;51.328;12.332;2023-03-01T03:44:02;15.23;;;9.75;;
77589;SDS011;66746;51.328;12.332;2023-03-01T03:46:29;16.75;;;9.98;;
77589;SDS011;66746;51.328;12.332;2023-03-01T03:48:55;14.38;;;10.55;;
77589;SDS011;66746;51.328;12.332;2023-03-01T03:51:22;19.05;;;11.43;;
77589;SDS011;66746;51.328;12.332;2023-03-01T03:53:49;17.13;;;11.13;;
77589;SDS011;66746;51.328;12.332;2023-03-01T03:56:16;17.83;;;10.23;;
77589;SDS011;66746;51.328;12.332;2023-03-01T03:58:42;18.58;;;10.13;;
77589;SDS011;66746;51.328;12.332;2023-03-01T04:01:09;17.15;;;9.88;;
77589;SDS011;66746;51.328;12.332;2023-03-01T04:03:35;15.40;;;10.70;;
77589;SDS011;66746;51.328;12.332;2023-03-01T04:06:02;22.33;;;11.63;;
77589;SDS011;66746;51.328;12.332;2023-03-01T04:08:29;19.25;;;11.38;;
77589;SDS011;66746;51.328;12.332;2023-03-01T04:11:01;19.90;;;11.27;;
77589;SDS011;66746;51.328;12.332;2023-03-01T04:13:28;18.15;;;9.93;;
77589;SDS011;66746;51.328;12.332;2023-03-01T04:15:55;19.30;;;10.88;;
77589;SDS011;66746;51.328;12.332;2023-03-01T04:18:22;19.60;;;10.05;;
77589;SDS011;66746;51.328;12.332;2023-03-01T04:20:50;18.70;;;10.95;;
77589;SDS011;66746;51.328;12.332;2023-03-01T04:23:19;19.60;;;10.00;;
77589;SDS011;66746;51.328;12.332;2023-03-01T04:25:47;16.17;;;10.35;;
77589;SDS011;66746;51.328;12.332;2023-03-01T04:28:16;19.10;;;10.43;;
77589;SDS011;66746;51.328;12.332;2023-03-01T04:30:43;18.13;;;9.07;;
77589;SDS011;66746;51.328;12.332;2023-03-01T04:33:10;15.18;;;9.82;;
77589;SDS011;66746;51.328;12.332;2023-03-01T04:35:37;18.67;;;9.98;;
77589;SDS011;66746;51.328;12.332;2023-03-01T04:38:04;17.10;;;11.13;;
77589;SDS011;66746;51.328;12.332;2023-03-01T04:40:31;14.90;;;9.68;;
77589;SDS011;66746;51.328;12.332;2023-03-01T04:42:58;15.40;;;11.35;;
77589;SDS011;66746;51.328;12.332;2023-03-01T04:45:26;20.15;;;11.85;;
77589;SDS011;66746;51.328;12.332;2023-03-01T04:47:52;18.23;;;12.38;;
77589;SDS011;66746;51.328;12.332;2023-03-01T04:50:19;16.33;;;9.98;;
77589;SDS011;66746;51.328;12.332;2023-03-01T04:52:46;15.82;;;10.43;;
77589;SDS011;66746;51.328;12.332;2023-03-01T04:55:14;18.77;;;10.98;;
77589;SDS011;66746;51.328;12.332;2023-03-01T04:57:41;21.15;;;11.25;;
77589;SDS011;66746;51.328;12.332;2023-03-01T05:00:08;21.33;;;10.63;;
77589;SDS011;66746;51.328;12.332;2023-03-01T05:02:39;16.33;;;10.52;;
77589;SDS011;66746;51.328;12.332;2023-03-01T05:05:06;18.85;;;11.48;;
77589;SDS011;66746;51.328;12.332;2023-03-01T05:07:32;18.40;;;10.15;;
77589;SDS011;66746;51.328;12.332;2023-03-01T05:09:59;20.83;;;10.95;;
77589;SDS011;66746;51.328;12.332;2023-03-01T05:12:25;19.63;;;10.68;;
77589;SDS011;66746;51.328;12.332;2023-03-01T05:14:52;20.50;;;10.82;;
77589;SDS011;66746;51.328;12.332;2023-03-01T05:17:18;15.65;;;10.27;;
77589;SDS011;66746;51.328;12.332;2023-03-01T05:19:46;17.17;;;10.65;;
77589;SDS011;66746;51.328;12.332;2023-03-01T05:22:12;19.55;;;10.65;;
77589;SDS011;66746;51.328;12.332;2023-03-01T05:24:39;18.52;;;9.93;;
77589;SDS011;66746;51.328;12.332;2023-03-01T05:27:05;18.20;;;11.88;;
77589;SDS011;66746;51.328;12.332;2023-03-01T05:29:32;16.75;;;10.23;;
77589;SDS011;66746;51.328;12.332;2023-03-01T05:31:58;20.75;;;11.35;;
77589;SDS011;66746;51.328;12.332;2023-03-01T05:34:27;19.73;;;11.70;;
77589;SDS011;66746;51.328;12.332;2023-03-01T05:36:57;21.88;;;11.32;;
77589;SDS011;66746;51.328;12.332;2023-03-01T05:39:24;19.92;;;10.88;;
77589;SDS011;66746;51.328;12.332;2023-03-01T05:41:52;17.98;;;11.23;;
77589;SDS011;66746;51.328;12.332;2023-03-01T05:44:20;16.67;;;10.57;;
77589;SDS011;66746;51.328;12.332;2023-03-01T05:46:46;16.92;;;10.90;;
77589;SDS011;66746;51.328;12.332;2023-03-01T05:49:13;17.83;;;10.23;;
77589;SDS011;66746;51.328;12.332;2023-03-01T05:51:40;17.42;;;11.40;;
77589;SDS011;66746;51.328;12.332;2023-03-01T05:54:08;16.52;;;10.30;;
77589;SDS011;66746;51.328;12.332;2023-03-01T05:56:35;16.77;;;10.32;;
77589;SDS011;66746;51.328;12.332;2023-03-01T05:59:03;18.73;;;11.98;;
77589;SDS011;66746;51.328;12.332;2023-03-01T06:01:31;21.88;;;11.35;;
77589;SDS011;66746;51.328;12.332;2023-03-01T06:03:58;18.20;;;11.98;;
77589;SDS011;66746;51.328;12.332;2023-03-01T06:06:24;18.45;;;10.45;;
77589;SDS011;66746;51.328;12.332;2023-03-01T06:08:54;16.85;;;10.77;;
77589;SDS011;66746;51.328;12.332;2023-03-01T06:11:22;17.73;;;10.48;;
77589;SDS011;66746;51.328;12.332;2023-03-01T06:13:49;20.00;;;10.65;;
77589;SDS011;66746;51.328;12.332;2023-03-01T06:16:15;19.58;;;10.80;;
77589;SDS011;66746;51.328;12.332;2023-03-01T06:18:42;17.27;;;11.63;;
77589;SDS011;66746;51.328;12.332;2023-03-01T06:21:08;18.25;;;11.88;;
77589;SDS011;66746;51.328;12.332;2023-03-01T06:23:35;21.27;;;12.35;;
77589;SDS011;66746;51.328;12.332;2023-03-01T06:26:05;17.73;;;10.20;;
77589;SDS011;66746;51.328;12.332;2023-03-01T06:28:33;22.85;;;11.32;;
77589;SDS011;66746;51.328;12.332;2023-03-01T06:31:00;16.40;;;11.20;;
77589;SDS011;66746;51.328;12.332;2023-03-01T06:33:27;19.98;;;11.90;;
77589;SDS011;66746;51.328;12.332;2023-03-01T06:35:54;22.35;;;11.35;;
77589;SDS011;66746;51.328;12.332;2023-03-01T06:38:23;19.20;;;11.43;;
77589;SDS011;66746;51.328;12.332;2023-03-01T06:40:53;21.30;;;11.65;;
77589;SDS011;66746;51.328;12.332;2023-03-01T06:43:20;19.38;;;12.00;;
77589;SDS011;66746;51.328;12.332;2023-03-01T06:45:49;21.70;;;11.95;;
77589;SDS011;66746;51.328;12.332;2023-03-01T06:48:16;20.65;;;12.18;;
77589;SDS011;66746;51.328;12.332;2023-03-01T06:50:42;20.67;;;11.18;;
77589;SDS011;66746;51.328;12.332;2023-03-01T06:53:09;20.45;;;12.70;;
77589;SDS011;66746;51.328;12.332;2023-03-01T06:55:35;19.02;;;13.25;;
77589;SDS011;66746;51.328;12.332;2023-03-01T06:58:02;20.92;;;11.13;;
77589;SDS011;66746;51.328;12.332;2023-03-01T07:00:29;22.83;;;11.82;;
77589;SDS011;66746;51.328;12.332;2023-03-01T07:02:59;19.23;;;11.45;;
77589;SDS011;66746;51.328;12.332;2023-03-01T07:05:26;19.77;;;13.15;;
77589;SDS011;66746;51.328;12.332;2023-03-01T07:07:53;20.05;;;10.32;;
77589;SDS011;66746;51.328;12.332;2023-03-01T07:10:19;19.08;;;12.38;;
77589;SDS011;66746;51.328;12.332;2023-03-01T07:12:46;18.58;;;12.40;;
77589;SDS011;66746;51.328;12.332;2023-03-01T07:15:12;19.05;;;11.43;;
77589;SDS011;66746;51.328;12.332;2023-03-01T07:17:39;19.98;;;11.55;;
77589;SDS011;66746;51.328;12.332;2023-03-01T07:20:07;22.13;;;12.32;;
77589;SDS011;66746;51.328;12.332;2023-03-01T07:22:39;17.58;;;11.85;;
77589;SDS011;66746;51.328;12.332;2023-03-01T07:25:07;20.55;;;11.52;;
77589;SDS011;66746;51.328;12.332;2023-03-01T07:27:34;24.27;;;13.60;;
77589;SDS011;66746;51.328;12.332;2023-03-01T07:30:00;20.05;;;11.40;;
77589;SDS011;66746;51.328;12.332;2023-03-01T07:32:27;24.58;;;11.32;;
77589;SDS011;66746;51.328;12.332;2023-03-01T07:34:53;22.50;;;12.75;;
77589;SDS011;66746;51.328;12.332;2023-03-01T07:37:21;21.23;;;12.40;;
77589;SDS011;66746;51.328;12.332;2023-03-01T07:39:50;21.80;;;12.65;;
77589;SDS011;66746;51.328;12.332;2023-03-01T07:42:16;21.83;;;11.77;;
77589;SDS011;66746;51.328;12.332;2023-03-01T07:44:43;25.17;;;12.32;;
77589;SDS011;66746;51.328;12.332;2023-03-01T07:47:09;26.85;;;11.77;;
77589;SDS011;66746;51.328;12.332;2023-03-01T07:49:36;20.67;;;12.30;;
77589;SDS011;66746;51.328;12.332;2023-03-01T07:52:02;22.73;;;12.13;;
77589;SDS011;66746;51.328;12.332;2023-03-01T07:54:30;20.88;;;12.20;;
77589;SDS011;66746;51.328;12.332;2023-03-01T07:56:57;19.77;;;13.10;;
77589;SDS011;66746;51.328;12.332;2023-03-01T07:59:23;20.52;;;13.55;;
77589;SDS011;66746;51.328;12.332;2023-03-01T08:01:50;22.20;;;12.48;;
77589;SDS011;66746;51.328;12.332;2023-03-01T08:04:16;20.10;;;12.57;;
77589;SDS011;66746;51.328;12.332;2023-03-01T08:06:43;24.20;;;13.63;;
77589;SDS011;66746;51.328;12.332;2023-03-01T08:09:09;20.40;;;12.40;;
77589;SDS011;66746;51.328;12.332;2023-03-01T08:11:37;19.77;;;12.07;;
77589;SDS011;66746;51.328;12.332;2023-03-01T08:14:05;22.52;;;12.27;;
77589;SDS011;66746;51.328;12.332;2023-03-01T08:16:32;18.15;;;12.40;;
77589;SDS011;66746;51.328;12.332;2023-03-01T08:19:03;19.67;;;12.50;;
77589;SDS011;66746;51.328;12.332;2023-03-01T08:21:30;19.67;;;11.68;;
77589;SDS011;66746;51.328;12.332;2023-03-01T08:23:56;22.50;;;11.25;;
77589;SDS011;66746;51.328;12.332;2023-03-01T08:26:23;19.90;;;11.05;;
77589;SDS011;66746;51.328;12.332;2023-03-01T08:28:50;19.45;;;12.20;;
77589;SDS011;66746;51.328;12.332;2023-03-01T08:31:18;19.92;;;12.05;;
77589;SDS011;66746;51.328;12.332;2023-03-01T08:33:47;18.95;;;12.18;;
77589;SDS011;66746;51.328;12.332;2023-03-01T08:36:14;20.05;;;12.15;;
77589;SDS011;66746;51.328;12.332;2023-03-01T08:38:41;21.77;;;12.73;;
77589;SDS011;66746;51.328;12.332;2023-03-01T08:41:07;23.15;;;12.27;;
77589;SDS011;66746;51.328;12.332;2023-03-01T08:43:34;17.48;;;12.90;;
77589;SDS011;66746;51.328;12.332;2023-03-01T08:46:02;20.08;;;13.10;;
77589;SDS011;66746;51.328;12.332;2023-03-01T08:48:28;19.92;;;13.73;;
77589;SDS011;66746;51.328;12.332;2023-03-01T08:50:55;20.90;;;12.93;;
77589;SDS011;66746;51.328;12.332;2023-03-01T08:53:22;20.50;;;12.00;;
77589;SDS011;66746;51.328;12.332;2023-03-01T08:55:48;22.10;;;11.88;;
77589;SDS011;66746;51.328;12.332;2023-03-01T08:58:16;22.90;;;13.50;;
77589;SDS011;66746;51.328;12.332;2023-03-01T09:00:42;20.45;;;11.80;;
77589;SDS011;66746;51.328;12.332;2023-03-01T09:03:10;20.42;;;13.05;;
77589;SDS011;66746;51.328;12.332;2023-03-01T09:05:36;20.17;;;12.88;;
77589;SDS011;66746;51.328;12.332;2023-03-01T09:08:03;21.02;;;12.93;;
77589;SDS011;66746;51.328;12.332;2023-03-01T09:10:30;18.35;;;12.75;;
77589;SDS011;66746;51.328;12.332;2023-03-01T09:12:56;20.73;;;12.48;;
77589;SDS011;66746;51.328;12.332;2023-03-01T09:15:23;21.30;;;13.25;;
77589;SDS011;66746;51.328;12.332;2023-03-01T09:17:49;19.63;;;13.38;;
77589;SDS011;66746;51.328;12.332;2023-03-01T09:20:17;19.38;;;12.48;;
77589;SDS011;66746;51.328;12.332;2023-03-01T09:22:44;23.08;;;13.52;;
77589;SDS011;66746;51.328;12.332;2023-03-01T09:25:10;18.23;;;12.32;;
77589;SDS011;66746;51.328;12.332;2023-03-01T09:27:39;21.88;;;12.60;;
77589;SDS011;66746;51.328;12.332;2023-03-01T09:30:07;19.92;;;12.93;;
77589;SDS011;66746;51.328;12.332;2023-03-01T09:32:34;20.27;;;12.18;;
77589;SDS011;66746;51.328;12.332;2023-03-01T09:35:01;21.75;;;12.27;;
77589;SDS011;66746;51.328;12.332;2023-03-01T09:37:29;18.27;;;11.98;;
77589;SDS011;66746;51.328;12.332;2023-03-01T09:39:55;19.60;;;12.13;;
77589;SDS011;66746;51.328;12.332;2023-03-01T09:42:22;19.65;;;12.90;;
77589;SDS011;66746;51.328;12.332;2023-03-01T09:44:49;21.20;;;12.93;;
77589;SDS011;66746;51.328;12.332;2023-03-01T09:47:20;21.02;;;12.73;;
77589;SDS011;66746;51.328;12.332;2023-03-01T09:49:52;21.15;;;12.73;;
77589;SDS011;66746;51.328;12.332;2023-03-01T09:52:30;22.10;;;12.32;;
77589;SDS011;66746;51.328;12.332;2023-03-01T09:55:05;18.77;;;12.75;;
77589;SDS011;66746;51.328;12.332;2023-03-01T09:57:41;21.38;;;12.10;;
77589;SDS011;66746;51.328;12.332;2023-03-01T10:00:18;20.23;;;12.40;;
77589;SDS011;66746;51.328;12.332;2023-03-01T10:02:56;18.77;;;11.25;;
77589;SDS011;66746;51.328;12.332;2023-03-01T10:05:30;18.02;;;11.13;;
77589;SDS011;66746;51.328;12.332;2023-03-01T10:08:19;19.98;;;12.93;;
77589;SDS011;66746;51.328;12.332;2023-03-01T10:10:52;16.85;;;10.73;;
77589;SDS011;66746;51.328;12.332;2023-03-01T10:13:21;16.45;;;11.57;;
77589;SDS011;66746;51.328;12.332;2023-03-01T10:15:50;19.88;;;12.75;;
77589;SDS011;66746;51.328;12.332;2023-03-01T10:18:21;17.55;;;10.93;;
77589;SDS011;66746;51.328;12.332;2023-03-01T10:20:52;18.67;;;11.75;;
77589;SDS011;66746;51.328;12.332;2023-03-01T10:23:23;17.52;;;12.88;;
77589;SDS011;66746;51.328;12.332;2023-03-01T10:26:02;19.25;;;11.57;;
77589;SDS011;66746;51.328;12.332;2023-03-01T10:28:40;20.38;;;12.38;;
77589;SDS011;66746;51.328;12.332;2023-03-01T10:31:17;18.52;;;12.20;;
77589;SDS011;66746;51.328;12.332;2023-03-01T10:33:48;20.70;;;12.35;;
77589;SDS011;66746;51.328;12.332;2023-03-01T10:36:14;21.67;;;13.07;;
77589;SDS011;66746;51.328;12.332;2023-03-01T10:38:49;20.95;;;12.25;;
77589;SDS011;66746;51.328;12.332;2023-03-01T10:41:18;18.77;;;12.07;;
77589;SDS011;66746;51.328;12.332;2023-03-01T10:43:45;18.08;;;11.32;;
77589;SDS011;66746;51.328;12.332;2023-03-01T10:46:24;17.48;;;12.07;;
77589;SDS011;66746;51.328;12.332;2023-03-01T10:49:05;18.88;;;10.32;;
77589;SDS011;66746;51.328;12.332;2023-03-01T10:51:34;14.75;;;9.88;;
77589;SDS011;66746;51.328;12.332;2023-03-01T10:54:02;16.98;;;10.77;;
77589;SDS011;66746;51.328;12.332;2023-03-01T10:56:33;20.45;;;11.23;;
77589;SDS011;66746;51.328;12.332;2023-03-01T10:59:19;16.23;;;10.38;;
77589;SDS011;66746;51.328;12.332;2023-03-01T11:02:00;16.90;;;11.65;;
77589;SDS011;66746;51.328;12.332;2023-03-01T11:04:42;20.08;;;11.27;;
77589;SDS011;66746;51.328;12.332;2023-03-01T11:07:23;19.33;;;11.95;;
77589;SDS011;66746;51.328;12.332;2023-03-01T11:09:51;16.73;;;10.32;;
77589;SDS011;66746;51.328;12.332;2023-03-01T11:12:17;16.30;;;10.27;;
77589;SDS011;66746;51.328;12.332;2023-03-01T11:14:46;16.58;;;11.85;;
77589;SDS011;66746;51.328;12.332;2023-03-01T11:17:15;19.50;;;10.50;;
77589;SDS011;66746;51.328;12.332;2023-03-01T11:22:28;16.20;;;10.98;;
77589;SDS011;66746;51.328;12.332;2023-03-01T11:24:57;18.02;;;11.75;;
77589;SDS011;66746;51.328;12.332;2023-03-01T11:27:36;20.90;;;13.40;;
77589;SDS011;66746;51.328;12.332;2023-03-01T11:30:15;18.30;;;12.15;;
77589;SDS011;66746;51.328;12.332;2023-03-01T11:32:47;24.02;;;13.98;;
77589;SDS011;66746;51.328;12.332;2023-03-01T11:35:20;20.52;;;13.32;;
77589;SDS011;66746;51.328;12.332;2023-03-01T11:37:55;19.73;;;14.05;;
77589;SDS011;66746;51.328;12.332;2023-03-01T11:40:31;20.38;;;11.77;;
77589;SDS011;66746;51.328;12.332;2023-03-01T11:43:04;19.10;;;12.55;;
77589;SDS011;66746;51.328;12.332;2023-03-01T11:45:41;20.55;;;12.20;;
77589;SDS011;66746;51.328;12.332;2023-03-01T11:48:26;21.73;;;12.45;;
77589;SDS011;66746;51.328;12.332;2023-03-01T11:51:16;20.92;;;13.40;;
77589;SDS011;66746;51.328;12.332;2023-03-01T11:53:52;18.88;;;12.27;;
77589;SDS011;66746;51.328;12.332;2023-03-01T11:56:43;21.90;;;12.02;;
77589;SDS011;66746;51.328;12.332;2023-03-01T11:59:24;20.60;;;13.30;;
77589;SDS011;66746;51.328;12.332;2023-03-01T12:02:07;21.35;;;13.38;;
77589;SDS011;66746;51.328;12.332;2023-03-01T12:04:52;21.60;;;13.02;;
77589;SDS011;66746;51.328;12.332;2023-03-01T12:07:31;20.05;;;12.95;;
77589;SDS011;66746;51.328;12.332;2023-03-01T12:12:57;21.02;;;12.98;;
77589;SDS011;66746;51.328;12.332;2023-03-01T12:18:41;18.27;;;12.70;;
77589;SDS011;66746;51.328;12.332;2023-03-01T12:21:32;19.33;;;12.60;;
77589;SDS011;66746;51.328;12.332;2023-03-01T12:24:21;18.00;;;12.45;;
77589;SDS011;66746;51.328;12.332;2023-03-01T12:27:07;19.80;;;13.02;;
77589;SDS011;66746;51.328;12.332;2023-03-01T12:29:48;20.70;;;12.45;;
77589;SDS011;66746;51.328;12.332;2023-03-01T12:32:27;15.00;;;10.73;;
77589;SDS011;66746;51.328;12.332;2023-03-01T12:35:14;14.73;;;11.55;;
77589;SDS011;66746;51.328;12.332;2023-03-01T12:37:54;18.35;;;11.10;;
77589;SDS011;66746;51.328;12.332;2023-03-01T12:43:34;15.60;;;9.88;;
77589;SDS011;66746;51.328;12.332;2023-03-01T12:46:18;13.63;;;9.65;;
77589;SDS011;66746;51.328;12.332;2023-03-01T12:48:59;17.05;;;10.25;;
77589;SDS011;66746;51.328;12.332;2023-03-01T12:51:38;16.88;;;11.40;;
77589;SDS011;66746;51.328;12.332;2023-03-01T12:54:12;15.95;;;10.35;;
77589;SDS011;66746;51.328;12.332;2023-03-01T12:56:42;14.00;;;10.32;;
77589;SDS011;66746;51.328;12.332;2023-03-01T12:59:13;15.50;;;9.88;;
77589;SDS011;66746;51.328;12.332;2023-03-01T13:01:48;16.50;;;10.68;;
77589;SDS011;66746;51.328;12.332;2023-03-01T13:04:24;15.50;;;10.52;;
77589;SDS011;66746;51.328;12.332;2023-03-01T13:07:04;17.33;;;11.10;;
77589;SDS011;66746;51.328;12.332;2023-03-01T13:09:44;15.68;;;9.82;;
77589;SDS011;66746;51.328;12.332;2023-03-01T13:15:27;16.27;;;10.85;;
77589;SDS011;66746;51.328;12.332;2023-03-01T13:18:00;16.00;;;11.07;;
77589;SDS011;66746;51.328;12.332;2023-03-01T13:20:33;18.45;;;11.55;;
77589;SDS011;66746;51.328;12.332;2023-03-01T13:23:25;17.48;;;11.63;;
77589;SDS011;66746;51.328;12.332;2023-03-01T13:26:01;17.23;;;13.05;;
77589;SDS011;66746;51.328;12.332;2023-03-01T13:28:50;14.55;;;10.30;;
77589;SDS011;66746;51.328;12.332;2023-03-01T13:40:04;17.45;;;10.10;;
77589;SDS011;66746;51.328;12.332;2023-03-01T13:42:47;15.25;;;10.45;;
77589;SDS011;66746;51.328;12.332;2023-03-01T13:45:33;14.95;;;9.68;;
77589;SDS011;66746;51.328;12.332;2023-03-01T13:48:11;15.40;;;9.75;;
77589;SDS011;66746;51.328;12.332;2023-03-01T13:50:45;14.43;;;10.27;;
77589;SDS011;66746;51.328;12.332;2023-03-01T13:53:16;13.57;;;9.23;;
77589;SDS011;66746;51.328;12.332;2023-03-01T13:55:45;15.68;;;11.80;;
77589;SDS011;66746;51.328;12.332;2023-03-01T13:58:16;15.70;;;10.65;;
77589;SDS011;66746;51.328;12.332;2023-03-01T14:00:46;15.23;;;10.73;;
77589;SDS011;66746;51.328;12.332;2023-03-01T14:03:14;12.98;;;9.45;;
77589;SDS011;66746;51.328;12.332;2023-03-01T14:05:42;13.27;;;9.23;;
77589;SDS011;66746;51.328;12.332;2023-03-01T14:08:38;14.75;;;9.30;;
77589;SDS011;66746;51.328;12.332;2023-03-01T14:11:18;14.73;;;9.20;;
77589;SDS011;66746;51.328;12.332;2023-03-01T14:13:58;12.65;;;9.02;;
77589;SDS011;66746;51.328;12.332;2023-03-01T14:16:36;15.75;;;10.05;;
77589;SDS011;66746;51.328;12.332;2023-03-01T14:19:15;15.23;;;10.75;;
77589;SDS011;66746;51.328;12.332;2023-03-01T14:21:59;13.18;;;8.35;;
77589;SDS011;66746;51.328;12.332;2023-03-01T14:24:39;17.83;;;10.82;;
77589;SDS011;66746;51.328;12.332;2023-03-01T14:27:10;13.57;;;9.18;;
77589;SDS011;66746;51.328;12.332;2023-03-01T14:29:38;16.33;;;9.52;;
77589;SDS011;66746;51.328;12.332;2023-03-01T14:32:08;12.63;;;8.70;;
77589;SDS011;66746;51.328;12.332;2023-03-01T14:34:42;13.13;;;9.13;;
77589;SDS011;66746;51.328;12.332;2023-03-01T14:37:15;15.05;;;8.27;;
77589;SDS011;66746;51.328;12.332;2023-03-01T14:39:49;11.02;;;8.15;;
77589;SDS011;66746;51.328;12.332;2023-03-01T14:42:16;11.40;;;7.05;;
77589;SDS011;66746;51.328;12.332;2023-03-01T14:44:44;10.90;;;7.13;;
77589;SDS011;66746;51.328;12.332;2023-03-01T14:47:14;12.15;;;7.13;;
77589;SDS011;66746;51.328;12.332;2023-03-01T14:49:46;10.65;;;7.07;;
77589;SDS011;66746;51.328;12.332;2023-03-01T14:52:20;13.63;;;7.13;;